createdAt,value
2022-09-26T00:00:59.270Z,986.14
2022-09-26T00:01:59.261Z,986.18
2022-09-26T00:02:59.195Z,986.15
2022-09-26T00:03:59.198Z,986.15
2022-09-26T00:04:59.176Z,986.15
2022-09-26T00:05:59.195Z,986.11
2022-09-26T00:06:59.166Z,986.14
2022-09-26T00:07:59.147Z,986.15
2022-09-26T00:08:59.175Z,986.07
2022-09-26T00:09:59.126Z,986.04
2022-09-26T00:10:59.118Z,986.00
2022-09-26T00:11:59.128Z,986.03
2022-09-26T00:12:59.097Z,985.96
2022-09-26T00:13:59.088Z,985.93
2022-09-26T00:14:59.068Z,985.96
2022-09-26T00:15:59.060Z,985.95
2022-09-26T00:16:59.118Z,985.88
2022-09-26T00:17:59.079Z,985.93
2022-09-26T00:18:59.047Z,985.86
2022-09-26T00:19:59.027Z,985.89
2022-09-26T00:20:59.010Z,985.83
2022-09-26T00:21:59.000Z,985.86
2022-09-26T00:22:58.991Z,985.81
2022-09-26T00:23:59.013Z,985.81
2022-09-26T00:24:58.961Z,985.84
2022-09-26T00:25:58.960Z,985.87
2022-09-26T00:26:58.951Z,985.83
2022-09-26T00:27:58.940Z,985.85
2022-09-26T00:28:58.922Z,985.90
2022-09-26T00:29:58.951Z,985.89
2022-09-26T00:30:58.932Z,985.89
2022-09-26T00:31:58.901Z,985.94
2022-09-26T00:32:58.883Z,985.91
2022-09-26T00:33:58.888Z,985.94
2022-09-26T00:34:58.872Z,985.90
2022-09-26T00:35:58.903Z,985.90
2022-09-26T00:36:58.843Z,985.86
2022-09-26T00:37:58.837Z,985.85
2022-09-26T00:38:58.815Z,985.87
2022-09-26T00:39:58.814Z,985.81
2022-09-26T00:40:58.855Z,985.83
2022-09-26T00:41:58.814Z,985.87
2022-09-26T00:42:58.776Z,985.86
2022-09-26T00:43:58.774Z,985.82
2022-09-26T00:44:58.764Z,985.78
2022-09-26T00:45:58.819Z,985.83
2022-09-26T00:46:58.738Z,985.83
2022-09-26T00:47:58.766Z,985.78
2022-09-26T00:48:58.721Z,985.79
2022-09-26T00:49:58.717Z,985.85
2022-09-26T00:50:58.697Z,985.84
2022-09-26T00:51:58.689Z,985.79
2022-09-26T00:52:58.685Z,985.78
2022-09-26T00:53:58.688Z,985.76
2022-09-26T00:54:58.657Z,985.74
2022-09-26T00:55:58.645Z,985.70
2022-09-26T00:56:58.638Z,985.67
2022-09-26T00:57:58.627Z,985.67
2022-09-26T00:58:58.617Z,985.64
2022-09-26T00:59:58.638Z,985.66
2022-09-26T01:00:58.710Z,985.65
2022-09-26T01:01:58.691Z,985.65
2022-09-26T01:02:58.572Z,985.69
2022-09-26T01:03:58.563Z,985.63
2022-09-26T01:04:58.550Z,985.57
2022-09-26T01:05:58.579Z,985.61
2022-09-26T01:06:58.531Z,985.60
2022-09-26T01:07:58.512Z,985.60
2022-09-26T01:08:58.523Z,985.54
2022-09-26T01:09:58.499Z,985.51
2022-09-26T01:10:58.491Z,985.57
2022-09-26T01:11:58.502Z,985.57
2022-09-26T01:12:58.471Z,985.58
2022-09-26T01:13:58.465Z,985.61
2022-09-26T01:14:58.445Z,985.59
2022-09-26T01:15:58.433Z,985.65
2022-09-26T01:16:58.466Z,985.61
2022-09-26T01:17:58.443Z,985.62
2022-09-26T01:18:58.441Z,985.63
2022-09-26T01:19:58.394Z,985.61
2022-09-26T01:20:58.387Z,985.55
2022-09-26T01:21:58.380Z,985.60
2022-09-26T01:22:58.363Z,985.60
2022-09-26T01:23:58.382Z,985.58
2022-09-26T01:24:58.346Z,985.53
2022-09-26T01:25:58.333Z,985.53
2022-09-26T01:26:58.338Z,985.56
2022-09-26T01:27:58.317Z,985.52
2022-09-26T01:28:58.297Z,985.55
2022-09-26T01:29:58.314Z,985.55
2022-09-26T01:30:58.378Z,985.51
2022-09-26T01:31:58.267Z,985.50
2022-09-26T01:32:58.266Z,985.54
2022-09-26T01:33:58.253Z,985.52
2022-09-26T01:34:58.237Z,985.52
2022-09-26T01:35:58.258Z,985.57
2022-09-26T01:36:58.217Z,985.52
2022-09-26T01:37:58.208Z,985.54
2022-09-26T01:38:58.198Z,985.56
2022-09-26T01:39:58.185Z,985.57
2022-09-26T01:40:58.207Z,985.55
2022-09-26T01:41:58.200Z,985.52
2022-09-26T01:42:58.160Z,985.61
2022-09-26T01:43:58.141Z,985.56
2022-09-26T01:44:59.988Z,985.59
2022-09-26T01:45:58.151Z,985.56
2022-09-26T01:46:58.111Z,985.58
2022-09-26T01:47:58.129Z,985.51
2022-09-26T01:48:58.098Z,985.50
2022-09-26T01:49:58.087Z,985.51
2022-09-26T01:50:58.071Z,985.45
2022-09-26T01:51:58.062Z,985.47
2022-09-26T01:52:58.053Z,985.45
2022-09-26T01:53:58.070Z,985.43
2022-09-26T01:54:58.032Z,985.43
2022-09-26T01:55:58.033Z,985.45
2022-09-26T01:56:58.004Z,985.46
2022-09-26T01:57:57.999Z,985.48
2022-09-26T01:58:58.000Z,985.44
2022-09-26T01:59:58.008Z,985.46
2022-09-26T02:00:58.053Z,985.40
2022-09-26T02:01:58.024Z,985.40
2022-09-26T02:02:57.943Z,985.39
2022-09-26T02:03:57.935Z,985.38
2022-09-26T02:04:57.935Z,985.35
2022-09-26T02:05:57.945Z,985.38
2022-09-26T02:06:57.908Z,985.35
2022-09-26T02:07:57.894Z,985.31
2022-09-26T02:08:57.877Z,985.26
2022-09-26T02:09:57.867Z,985.29
2022-09-26T02:10:57.856Z,985.22
2022-09-26T02:11:57.895Z,985.24
2022-09-26T02:12:57.836Z,985.23
2022-09-26T02:13:57.838Z,985.24
2022-09-26T02:14:57.827Z,985.21
2022-09-26T02:15:57.807Z,985.20
2022-09-26T02:16:57.869Z,985.14
2022-09-26T02:17:57.809Z,985.14
2022-09-26T02:18:57.779Z,985.10
2022-09-26T02:19:57.767Z,985.11
2022-09-26T02:20:57.756Z,985.08
2022-09-26T02:21:57.747Z,985.01
2022-09-26T02:22:57.742Z,984.95
2022-09-26T02:23:57.760Z,984.95
2022-09-26T02:24:57.719Z,984.94
2022-09-26T02:25:57.708Z,984.93
2022-09-26T02:26:57.700Z,984.95
2022-09-26T02:27:57.682Z,984.94
2022-09-26T02:28:57.672Z,984.96
2022-09-26T02:29:57.691Z,984.90
2022-09-26T02:30:57.662Z,984.85
2022-09-26T02:31:57.679Z,984.87
2022-09-26T02:32:57.632Z,984.84
2022-09-26T02:33:57.622Z,984.85
2022-09-26T02:34:57.612Z,984.84
2022-09-26T02:35:57.626Z,984.91
2022-09-26T02:36:57.596Z,984.90
2022-09-26T02:37:57.582Z,984.88
2022-09-26T02:38:57.572Z,984.88
2022-09-26T02:39:57.553Z,984.86
2022-09-26T02:40:57.589Z,984.79
2022-09-26T02:41:57.587Z,984.81
2022-09-26T02:42:57.533Z,984.78
2022-09-26T02:43:57.514Z,984.76
2022-09-26T02:44:57.504Z,984.74
2022-09-26T02:45:57.565Z,984.70
2022-09-26T02:46:57.486Z,984.70
2022-09-26T02:47:57.505Z,984.67
2022-09-26T02:48:57.468Z,984.65
2022-09-26T02:49:57.446Z,984.67
2022-09-26T02:50:57.445Z,984.63
2022-09-26T02:51:57.428Z,984.62
2022-09-26T02:52:57.425Z,984.56
2022-09-26T02:53:57.444Z,984.55
2022-09-26T02:54:57.397Z,984.53
2022-09-26T02:55:57.387Z,984.49
2022-09-26T02:56:57.377Z,984.46
2022-09-26T02:57:57.371Z,984.49
2022-09-26T02:58:57.360Z,984.47
2022-09-26T02:59:57.370Z,984.48
2022-09-26T03:00:57.368Z,984.49
2022-09-26T03:01:57.326Z,984.47
2022-09-26T03:02:57.320Z,984.47
2022-09-26T03:03:57.300Z,984.50
2022-09-26T03:04:57.330Z,984.47
2022-09-26T03:05:57.311Z,984.41
2022-09-26T03:06:57.278Z,984.43
2022-09-26T03:07:57.261Z,984.44
2022-09-26T03:08:57.261Z,984.36
2022-09-26T03:09:57.242Z,984.37
2022-09-26T03:10:57.232Z,984.33
2022-09-26T03:11:57.251Z,984.39
2022-09-26T03:12:57.212Z,984.44
2022-09-26T03:13:57.202Z,984.41
2022-09-26T03:14:58.808Z,984.35
2022-09-26T03:15:57.239Z,984.36
2022-09-26T03:16:57.172Z,984.33
2022-09-26T03:17:57.182Z,984.33
2022-09-26T03:18:57.153Z,984.36
2022-09-26T03:19:57.134Z,984.36
2022-09-26T03:20:57.134Z,984.38
2022-09-26T03:21:57.115Z,984.37
2022-09-26T03:22:57.112Z,984.33
2022-09-26T03:23:57.124Z,984.29
2022-09-26T03:24:57.084Z,984.34
2022-09-26T03:25:57.075Z,984.24
2022-09-26T03:26:57.066Z,984.22
2022-09-26T03:27:57.054Z,984.23
2022-09-26T03:28:57.045Z,984.23
2022-09-26T03:29:57.063Z,984.22
2022-09-26T03:30:57.026Z,984.20
2022-09-26T03:31:57.053Z,984.24
2022-09-26T03:32:57.005Z,984.25
2022-09-26T03:33:56.989Z,984.21
2022-09-26T03:34:56.989Z,984.20
2022-09-26T03:35:57.005Z,984.17
2022-09-26T03:36:56.966Z,984.16
2022-09-26T03:37:56.951Z,984.09
2022-09-26T03:38:56.949Z,984.09
2022-09-26T03:39:56.926Z,984.15
2022-09-26T03:40:56.986Z,984.15
2022-09-26T03:41:56.938Z,984.10
2022-09-26T03:42:56.900Z,984.07
2022-09-26T03:43:56.888Z,984.06
2022-09-26T03:44:56.879Z,984.07
2022-09-26T03:45:56.908Z,984.05
2022-09-26T03:46:56.860Z,984.01
2022-09-26T03:47:56.889Z,983.97
2022-09-26T03:48:56.840Z,984.00
2022-09-26T03:49:56.829Z,984.00
2022-09-26T03:50:56.819Z,983.98
2022-09-26T03:51:56.802Z,983.96
2022-09-26T03:52:56.798Z,983.94
2022-09-26T03:53:56.808Z,984.03
2022-09-26T03:54:56.774Z,984.01
2022-09-26T03:55:56.760Z,984.02
2022-09-26T03:56:56.752Z,984.10
2022-09-26T03:57:56.740Z,984.07
2022-09-26T03:58:56.734Z,984.06
2022-09-26T03:59:56.751Z,984.13
2022-09-26T04:00:56.741Z,984.05
2022-09-26T04:01:56.743Z,984.05
2022-09-26T04:02:56.706Z,984.03
2022-09-26T04:03:56.675Z,984.03
2022-09-26T04:04:56.670Z,984.05
2022-09-26T04:05:56.689Z,984.03
2022-09-26T04:06:56.645Z,984.00
2022-09-26T04:07:56.634Z,984.02
2022-09-26T04:08:56.634Z,983.95
2022-09-26T04:09:56.616Z,984.02
2022-09-26T04:10:56.605Z,984.02
2022-09-26T04:11:56.625Z,984.00
2022-09-26T04:12:56.592Z,984.03
2022-09-26T04:13:56.574Z,984.00
2022-09-26T04:14:56.566Z,983.95
2022-09-26T04:15:56.582Z,983.98
2022-09-26T04:16:56.546Z,983.99
2022-09-26T04:17:56.556Z,983.96
2022-09-26T04:18:56.593Z,983.91
2022-09-26T04:19:56.519Z,983.93
2022-09-26T04:20:56.498Z,983.93
2022-09-26T04:21:56.489Z,983.91
2022-09-26T04:22:56.488Z,983.90
2022-09-26T04:23:56.521Z,983.84
2022-09-26T04:24:56.467Z,983.82
2022-09-26T04:25:56.451Z,983.81
2022-09-26T04:26:56.441Z,983.82
2022-09-26T04:27:56.419Z,983.83
2022-09-26T04:28:56.426Z,983.78
2022-09-26T04:29:56.438Z,983.79
2022-09-26T04:30:56.397Z,983.73
2022-09-26T04:31:56.431Z,983.76
2022-09-26T04:32:56.383Z,983.77
2022-09-26T04:33:56.371Z,983.78
2022-09-26T04:34:56.361Z,983.75
2022-09-26T04:35:56.371Z,983.79
2022-09-26T04:36:56.330Z,983.76
2022-09-26T04:37:56.322Z,983.74
2022-09-26T04:38:56.323Z,983.74
2022-09-26T04:39:56.292Z,983.77
2022-09-26T04:40:56.362Z,983.78
2022-09-26T04:41:56.313Z,983.76
2022-09-26T04:42:56.270Z,983.81
2022-09-26T04:43:56.212Z,983.75
2022-09-26T04:44:56.203Z,983.77
2022-09-26T04:45:56.262Z,983.77
2022-09-26T04:46:56.176Z,983.73
2022-09-26T04:47:56.185Z,983.78
2022-09-26T04:48:56.164Z,983.76
2022-09-26T04:49:56.144Z,983.70
2022-09-26T04:50:56.138Z,983.71
2022-09-26T04:51:56.115Z,983.73
2022-09-26T04:52:56.113Z,983.74
2022-09-26T04:53:56.155Z,983.73
2022-09-26T04:54:56.095Z,983.75
2022-09-26T04:55:56.085Z,983.75
2022-09-26T04:56:56.066Z,983.78
2022-09-26T04:57:56.056Z,983.78
2022-09-26T04:58:56.065Z,983.77
2022-09-26T04:59:56.078Z,983.73
2022-09-26T05:00:56.057Z,983.75
2022-09-26T05:01:56.067Z,983.74
2022-09-26T05:02:56.017Z,983.68
2022-09-26T05:03:55.999Z,983.75
2022-09-26T05:04:56.000Z,983.71
2022-09-26T05:05:56.019Z,983.72
2022-09-26T05:06:55.968Z,983.68
2022-09-26T05:07:55.958Z,983.68
2022-09-26T05:08:55.949Z,983.68
2022-09-26T05:09:55.938Z,983.61
2022-09-26T05:10:55.921Z,983.62
2022-09-26T05:11:55.947Z,983.59
2022-09-26T05:12:55.900Z,983.58
2022-09-26T05:13:55.891Z,983.60
2022-09-26T05:14:55.882Z,983.60
2022-09-26T05:15:55.963Z,983.63
2022-09-26T05:16:55.873Z,983.59
2022-09-26T05:17:55.890Z,983.58
2022-09-26T05:18:55.843Z,983.61
2022-09-26T05:19:55.832Z,983.57
2022-09-26T05:20:55.820Z,983.57
2022-09-26T05:21:55.814Z,983.61
2022-09-26T05:22:55.800Z,983.58
2022-09-26T05:23:55.824Z,983.57
2022-09-26T05:24:55.783Z,983.53
2022-09-26T05:25:55.772Z,983.53
2022-09-26T05:26:55.755Z,983.45
2022-09-26T05:27:55.744Z,983.50
2022-09-26T05:28:55.733Z,983.47
2022-09-26T05:29:55.753Z,983.48
2022-09-26T05:30:55.716Z,983.48
2022-09-26T05:31:55.740Z,983.52
2022-09-26T05:32:55.695Z,983.54
2022-09-26T05:33:55.685Z,983.53
2022-09-26T05:34:55.679Z,983.48
2022-09-26T05:35:55.699Z,983.54
2022-09-26T05:36:55.657Z,983.53
2022-09-26T05:37:55.635Z,983.46
2022-09-26T05:38:55.627Z,983.46
2022-09-26T05:39:55.634Z,983.47
2022-09-26T05:40:55.671Z,983.46
2022-09-26T05:41:55.635Z,983.46
2022-09-26T05:42:55.589Z,983.48
2022-09-26T05:43:55.588Z,983.47
2022-09-26T05:44:55.577Z,983.44
2022-09-26T05:45:55.557Z,983.41
2022-09-26T05:46:55.604Z,983.40
2022-09-26T05:47:55.569Z,983.39
2022-09-26T05:48:55.529Z,983.41
2022-09-26T05:49:55.528Z,983.38
2022-09-26T05:50:55.508Z,983.42
2022-09-26T05:51:55.499Z,983.42
2022-09-26T05:52:55.487Z,983.46
2022-09-26T05:53:55.510Z,983.40
2022-09-26T05:54:55.461Z,983.43
2022-09-26T05:55:55.462Z,983.42
2022-09-26T05:56:55.449Z,983.41
2022-09-26T05:57:55.432Z,983.39
2022-09-26T05:58:55.417Z,983.34
2022-09-26T05:59:55.449Z,983.37
2022-09-26T06:00:55.481Z,983.36
2022-09-26T06:01:55.521Z,983.34
2022-09-26T06:02:55.383Z,983.35
2022-09-26T06:03:55.383Z,983.34
2022-09-26T06:04:55.366Z,983.33
2022-09-26T06:05:55.381Z,983.35
2022-09-26T06:06:55.341Z,983.32
2022-09-26T06:07:55.332Z,983.30
2022-09-26T06:08:55.323Z,983.33
2022-09-26T06:09:55.303Z,983.31
2022-09-26T06:10:55.293Z,983.29
2022-09-26T06:11:55.327Z,983.31
2022-09-26T06:12:55.274Z,983.28
2022-09-26T06:13:55.271Z,983.30
2022-09-26T06:14:55.253Z,983.28
2022-09-26T06:15:55.260Z,983.27
2022-09-26T06:16:55.309Z,983.35
2022-09-26T06:17:55.262Z,983.28
2022-09-26T06:18:55.215Z,983.30
2022-09-26T06:19:55.206Z,983.27
2022-09-26T06:20:55.188Z,983.30
2022-09-26T06:21:55.184Z,983.32
2022-09-26T06:22:55.174Z,983.36
2022-09-26T06:23:55.186Z,983.30
2022-09-26T06:24:55.146Z,983.28
2022-09-26T06:25:55.146Z,983.30
2022-09-26T06:26:55.136Z,983.28
2022-09-26T06:27:59.108Z,983.23
2022-09-26T06:28:56.138Z,983.24
2022-09-26T06:29:55.105Z,983.28
2022-09-26T06:30:55.087Z,983.21
2022-09-26T06:31:55.189Z,983.31
2022-09-26T06:32:55.068Z,983.27
2022-09-26T06:33:55.068Z,983.28
2022-09-26T06:34:55.079Z,983.27
2022-09-26T06:35:55.043Z,983.29
2022-09-26T06:36:55.029Z,983.25
2022-09-26T06:37:55.019Z,983.27
2022-09-26T06:38:55.010Z,983.23
2022-09-26T06:39:59.214Z,983.24
2022-09-26T06:40:55.071Z,983.21
2022-09-26T06:41:54.979Z,983.19
2022-09-26T06:42:54.967Z,983.19
2022-09-26T06:43:54.952Z,983.28
2022-09-26T06:44:54.948Z,983.24
2022-09-26T06:45:54.934Z,983.24
2022-09-26T06:46:55.040Z,983.19
2022-09-26T06:47:54.910Z,983.22
2022-09-26T06:48:54.902Z,983.21
2022-09-26T06:49:54.905Z,983.17
2022-09-26T06:50:54.883Z,983.23
2022-09-26T06:51:54.872Z,983.18
2022-09-26T06:52:54.893Z,983.16
2022-09-26T06:53:54.853Z,983.14
2022-09-26T06:54:54.835Z,983.17
2022-09-26T06:55:54.844Z,983.16
2022-09-26T06:56:54.816Z,983.17
2022-09-26T06:57:54.814Z,983.16
2022-09-26T06:58:54.831Z,983.18
2022-09-26T06:59:54.793Z,983.15
2022-09-26T07:00:54.898Z,983.16
2022-09-26T07:01:54.916Z,983.17
2022-09-26T07:02:54.759Z,983.13
2022-09-26T07:03:54.747Z,983.11
2022-09-26T07:04:54.777Z,983.15
2022-09-26T07:05:54.726Z,983.09
2022-09-26T07:06:54.715Z,983.09
2022-09-26T07:07:54.706Z,983.14
2022-09-26T07:09:04.706Z,983.11
2022-09-26T07:09:55.706Z,983.11
2022-09-26T07:10:54.688Z,983.12
2022-09-26T07:12:14.801Z,983.12
2022-09-26T07:12:55.648Z,983.09
2022-09-26T07:13:54.645Z,983.14
2022-09-26T07:14:54.629Z,983.10
2022-09-26T07:15:54.711Z,983.11
2022-09-26T07:16:54.609Z,983.15
2022-09-26T07:17:54.601Z,983.15
2022-09-26T07:18:54.646Z,983.10
2022-09-26T07:19:54.580Z,983.10
2022-09-26T07:20:56.768Z,983.10
2022-09-26T07:21:54.590Z,983.08
2022-09-26T07:22:54.548Z,983.05
2022-09-26T07:23:54.543Z,983.13
2022-09-26T07:24:54.531Z,983.10
2022-09-26T07:25:54.514Z,983.08
2022-09-26T07:26:54.502Z,983.11
2022-09-26T07:27:54.532Z,983.11
2022-09-26T07:28:55.168Z,983.06
2022-09-26T07:29:54.471Z,983.11
2022-09-26T07:30:54.463Z,983.08
2022-09-26T07:31:54.478Z,983.05
2022-09-26T07:32:54.441Z,983.03
2022-09-26T07:33:54.470Z,983.05
2022-09-26T07:34:54.422Z,983.06
2022-09-26T07:35:54.432Z,983.09
2022-09-26T07:36:54.393Z,983.06
2022-09-26T07:37:54.395Z,983.09
2022-09-26T07:38:54.383Z,983.08
2022-09-26T07:39:58.199Z,983.08
2022-09-26T07:40:55.433Z,983.07
2022-09-26T07:41:54.354Z,983.05
2022-09-26T07:43:09.546Z,983.09
2022-09-26T07:45:23.257Z,983.06
2022-09-26T07:45:55.306Z,983.08
2022-09-26T07:46:54.360Z,983.05
2022-09-26T07:47:54.297Z,983.07
2022-09-26T07:48:54.277Z,983.04
2022-09-26T07:49:54.276Z,983.03
2022-09-26T07:50:54.280Z,983.06
2022-09-26T07:51:54.296Z,983.10
2022-09-26T07:52:54.235Z,983.01
2022-09-26T07:53:54.227Z,983.07
2022-09-26T07:54:54.217Z,983.03
2022-09-26T07:55:54.209Z,983.05
2022-09-26T07:56:54.223Z,983.03
2022-09-26T07:57:54.199Z,983.05
2022-09-26T07:58:54.179Z,983.07
2022-09-26T07:59:54.170Z,983.04
2022-09-26T08:00:54.312Z,983.02
2022-09-26T08:01:54.211Z,983.05
2022-09-26T08:02:54.192Z,983.09
2022-09-26T08:03:54.127Z,983.10
2022-09-26T08:04:58.759Z,983.09
2022-09-26T08:05:55.102Z,983.09
2022-09-26T08:06:54.091Z,983.15
2022-09-26T08:07:54.086Z,983.09
2022-09-26T08:08:54.130Z,983.11
2022-09-26T08:09:54.052Z,983.12
2022-09-26T08:10:54.040Z,983.13
2022-09-26T08:11:54.041Z,983.06
2022-09-26T08:12:54.023Z,983.09
2022-09-26T08:13:54.015Z,983.00
2022-09-26T08:14:54.023Z,983.05
2022-09-26T08:15:54.090Z,983.08
2022-09-26T08:16:53.986Z,983.10
2022-09-26T08:17:53.966Z,983.10
2022-09-26T08:18:53.962Z,983.11
2022-09-26T08:19:53.954Z,983.11
2022-09-26T08:20:53.968Z,983.13
2022-09-26T08:21:53.926Z,983.10
2022-09-26T08:22:53.917Z,983.10
2022-09-26T08:23:53.908Z,983.16
2022-09-26T08:24:53.896Z,983.14
2022-09-26T08:25:53.888Z,983.12
2022-09-26T08:26:53.899Z,983.13
2022-09-26T08:27:53.873Z,983.17
2022-09-26T08:28:53.867Z,983.10
2022-09-26T08:29:53.851Z,983.13
2022-09-26T08:30:53.884Z,983.13
2022-09-26T08:31:53.890Z,983.15
2022-09-26T08:32:53.846Z,983.08
2022-09-26T08:33:53.799Z,983.14
2022-09-26T08:34:53.792Z,983.16
2022-09-26T08:35:53.788Z,983.13
2022-09-26T08:36:53.769Z,983.12
2022-09-26T08:37:53.764Z,983.14
2022-09-26T08:38:53.770Z,983.12
2022-09-26T08:39:53.743Z,983.11
2022-09-26T08:40:53.760Z,983.13
2022-09-26T08:41:53.725Z,983.14
2022-09-26T08:42:53.702Z,983.15
2022-09-26T08:43:53.693Z,983.17
2022-09-26T08:44:53.724Z,983.14
2022-09-26T08:45:53.672Z,983.13
2022-09-26T08:46:53.695Z,983.16
2022-09-26T08:47:53.654Z,983.15
2022-09-26T08:48:53.636Z,983.17
2022-09-26T08:49:53.643Z,983.13
2022-09-26T08:50:53.652Z,983.11
2022-09-26T08:51:53.637Z,983.12
2022-09-26T08:52:53.600Z,983.13
2022-09-26T08:53:53.595Z,983.10
2022-09-26T08:54:53.574Z,983.06
2022-09-26T08:55:53.576Z,983.09
2022-09-26T08:56:53.596Z,983.08
2022-09-26T08:57:53.548Z,983.07
2022-09-26T08:58:53.535Z,983.14
2022-09-26T08:59:53.528Z,983.13
2022-09-26T09:00:53.515Z,983.11
2022-09-26T09:01:53.640Z,983.09
2022-09-26T09:02:53.593Z,983.10
2022-09-26T09:03:53.490Z,983.15
2022-09-26T09:04:54.162Z,983.11
2022-09-26T09:05:53.467Z,983.12
2022-09-26T09:06:53.450Z,983.13
2022-09-26T09:07:53.446Z,983.12
2022-09-26T09:08:53.478Z,983.11
2022-09-26T09:09:53.419Z,983.14
2022-09-26T09:10:53.416Z,983.12
2022-09-26T09:11:53.403Z,983.11
2022-09-26T09:12:53.390Z,983.12
2022-09-26T09:13:53.383Z,983.09
2022-09-26T09:15:13.871Z,983.13
2022-09-26T09:15:54.418Z,983.14
2022-09-26T09:16:53.350Z,983.11
2022-09-26T09:17:53.343Z,983.11
2022-09-26T09:18:53.322Z,983.12
2022-09-26T09:19:53.332Z,983.11
2022-09-26T09:20:53.345Z,983.10
2022-09-26T09:21:53.290Z,983.09
2022-09-26T09:22:53.299Z,983.09
2022-09-26T09:23:53.273Z,983.08
2022-09-26T09:24:53.264Z,983.07
2022-09-26T09:25:53.349Z,983.09
2022-09-26T09:27:55.047Z,983.10
2022-09-26T09:28:53.226Z,983.12
2022-09-26T09:29:53.204Z,983.10
2022-09-26T09:30:53.235Z,983.10
2022-09-26T09:31:53.187Z,983.07
2022-09-26T09:32:53.223Z,983.09
2022-09-26T09:33:53.167Z,983.10
2022-09-26T09:34:54.073Z,983.09
2022-09-26T09:35:53.148Z,983.07
2022-09-26T09:36:53.140Z,983.10
2022-09-26T09:37:53.125Z,983.14
2022-09-26T09:38:53.139Z,983.12
2022-09-26T09:39:53.106Z,983.14
2022-09-26T09:40:53.153Z,983.09
2022-09-26T09:41:53.078Z,983.04
2022-09-26T09:42:53.072Z,983.09
2022-09-26T09:43:53.076Z,983.08
2022-09-26T09:44:53.098Z,983.11
2022-09-26T09:45:53.039Z,983.07
2022-09-26T09:46:53.123Z,983.07
2022-09-26T09:47:53.010Z,983.11
2022-09-26T09:48:53.016Z,983.06
2022-09-26T09:49:52.999Z,983.08
2022-09-26T09:50:53.010Z,983.11
2022-09-26T09:51:52.973Z,983.05
2022-09-26T09:52:52.970Z,983.12
2022-09-26T09:53:52.955Z,983.12
2022-09-26T09:54:52.942Z,983.11
2022-09-26T09:55:52.940Z,983.12
2022-09-26T09:56:53.006Z,983.07
2022-09-26T09:57:52.910Z,983.12
2022-09-26T09:58:52.923Z,983.08
2022-09-26T09:59:52.884Z,983.11
2022-09-26T10:00:52.883Z,983.11
2022-09-26T10:01:52.867Z,983.09
2022-09-26T10:02:52.954Z,983.10
2022-09-26T10:03:52.845Z,983.10
2022-09-26T10:04:52.831Z,983.11
2022-09-26T10:05:52.826Z,983.11
2022-09-26T10:06:52.815Z,983.17
2022-09-26T10:07:52.805Z,983.17
2022-09-26T10:08:52.835Z,983.14
2022-09-26T10:09:52.784Z,983.16
2022-09-26T10:10:52.787Z,983.14
2022-09-26T10:11:52.766Z,983.13
2022-09-26T10:12:52.764Z,983.08
2022-09-26T10:13:52.739Z,983.12
2022-09-26T10:14:52.779Z,983.07
2022-09-26T10:15:52.768Z,983.05
2022-09-26T10:16:52.709Z,982.99
2022-09-26T10:18:19.851Z,983.10
2022-09-26T10:18:53.688Z,983.02
2022-09-26T10:19:52.679Z,982.97
2022-09-26T10:20:52.690Z,983.04
2022-09-26T10:21:52.659Z,982.97
2022-09-26T10:22:52.650Z,983.04
2022-09-26T10:23:52.631Z,983.03
2022-09-26T10:24:52.630Z,982.99
2022-09-26T10:25:52.621Z,983.02
2022-09-26T10:26:52.632Z,983.04
2022-09-26T10:27:52.592Z,983.04
2022-09-26T10:28:52.584Z,983.06
2022-09-26T10:29:52.582Z,983.05
2022-09-26T10:30:52.621Z,983.07
2022-09-26T10:31:52.608Z,983.11
2022-09-26T10:32:56.253Z,983.09
2022-09-26T10:33:52.532Z,983.08
2022-09-26T10:34:52.524Z,983.05
2022-09-26T10:35:52.514Z,983.10
2022-09-26T10:36:52.504Z,983.11
2022-09-26T10:37:52.495Z,983.09
2022-09-26T10:38:52.513Z,983.09
2022-09-26T10:39:52.466Z,983.07
2022-09-26T10:40:52.530Z,983.16
2022-09-26T10:41:52.458Z,983.10
2022-09-26T10:42:52.439Z,983.12
2022-09-26T10:43:52.426Z,983.09
2022-09-26T10:44:52.457Z,983.12
2022-09-26T10:45:52.414Z,983.05
2022-09-26T10:46:52.475Z,983.06
2022-09-26T10:47:52.387Z,983.03
2022-09-26T10:48:52.387Z,983.04
2022-09-26T10:49:52.367Z,983.02
2022-09-26T10:50:52.395Z,983.04
2022-09-26T10:51:52.350Z,983.01
2022-09-26T10:52:52.339Z,982.99
2022-09-26T10:53:52.331Z,982.99
2022-09-26T10:54:52.327Z,983.03
2022-09-26T10:55:52.413Z,982.96
2022-09-26T10:56:52.336Z,982.91
2022-09-26T10:57:52.281Z,982.95
2022-09-26T10:58:52.285Z,982.99
2022-09-26T10:59:52.262Z,982.95
2022-09-26T11:00:52.262Z,982.96
2022-09-26T11:01:52.297Z,982.94
2022-09-26T11:02:52.266Z,982.91
2022-09-26T11:03:52.283Z,982.89
2022-09-26T11:04:52.222Z,982.92
2022-09-26T11:05:52.211Z,982.91
2022-09-26T11:06:52.199Z,982.88
2022-09-26T11:07:52.190Z,982.89
2022-09-26T11:08:52.196Z,982.88
2022-09-26T11:09:52.164Z,982.90
2022-09-26T11:10:52.154Z,982.89
2022-09-26T11:11:52.145Z,982.97
2022-09-26T11:12:52.139Z,982.88
2022-09-26T11:13:52.123Z,982.86
2022-09-26T11:14:52.147Z,982.85
2022-09-26T11:15:52.161Z,982.84
2022-09-26T11:16:52.103Z,982.86
2022-09-26T11:17:52.077Z,982.85
2022-09-26T11:18:52.786Z,982.85
2022-09-26T11:19:54.911Z,982.88
2022-09-26T11:20:52.085Z,982.90
2022-09-26T11:21:52.038Z,982.86
2022-09-26T11:22:52.056Z,982.90
2022-09-26T11:23:52.019Z,982.87
2022-09-26T11:24:52.006Z,982.86
2022-09-26T11:25:55.649Z,982.81
2022-09-26T11:26:53.017Z,982.86
2022-09-26T11:27:51.979Z,982.85
2022-09-26T11:28:51.969Z,982.79
2022-09-26T11:29:51.948Z,982.80
2022-09-26T11:30:51.979Z,982.83
2022-09-26T11:31:51.933Z,982.78
2022-09-26T11:32:51.951Z,982.75
2022-09-26T11:33:51.901Z,982.79
2022-09-26T11:34:51.922Z,982.79
2022-09-26T11:35:51.882Z,982.79
2022-09-26T11:36:51.881Z,982.78
2022-09-26T11:37:51.871Z,982.79
2022-09-26T11:38:51.881Z,982.78
2022-09-26T11:39:51.843Z,982.79
2022-09-26T11:40:51.879Z,982.77
2022-09-26T11:41:51.813Z,982.75
2022-09-26T11:42:51.805Z,982.75
2022-09-26T11:43:51.804Z,982.77
2022-09-26T11:44:51.812Z,982.75
2022-09-26T11:45:51.794Z,982.81
2022-09-26T11:46:51.819Z,982.73
2022-09-26T11:47:51.748Z,982.76
2022-09-26T11:48:51.746Z,982.74
2022-09-26T11:49:51.725Z,982.74
2022-09-26T11:50:51.746Z,982.73
2022-09-26T11:51:51.708Z,982.72
2022-09-26T11:52:51.697Z,982.74
2022-09-26T11:53:51.697Z,982.72
2022-09-26T11:54:51.686Z,982.70
2022-09-26T11:55:51.669Z,982.72
2022-09-26T11:56:51.689Z,982.69
2022-09-26T11:57:51.648Z,982.70
2022-09-26T11:58:51.638Z,982.65
2022-09-26T11:59:51.628Z,982.70
2022-09-26T12:00:51.642Z,982.68
2022-09-26T12:01:51.602Z,982.68
2022-09-26T12:02:51.758Z,982.75
2022-09-26T12:03:51.649Z,982.70
2022-09-26T12:04:51.571Z,982.71
2022-09-26T12:05:51.562Z,982.73
2022-09-26T12:06:51.564Z,982.73
2022-09-26T12:07:51.541Z,982.76
2022-09-26T12:08:51.572Z,982.76
2022-09-26T12:09:51.513Z,982.75
2022-09-26T12:10:51.520Z,982.75
2022-09-26T12:11:51.506Z,982.72
2022-09-26T12:12:51.493Z,982.69
2022-09-26T12:13:51.473Z,982.74
2022-09-26T12:14:51.505Z,982.71
2022-09-26T12:15:51.494Z,982.70
2022-09-26T12:16:51.451Z,982.74
2022-09-26T12:17:51.435Z,982.68
2022-09-26T12:18:51.433Z,982.75
2022-09-26T12:19:51.418Z,982.72
2022-09-26T12:20:51.446Z,982.71
2022-09-26T12:21:51.401Z,982.72
2022-09-26T12:22:51.386Z,982.72
2022-09-26T12:23:51.375Z,982.70
2022-09-26T12:24:51.368Z,982.70
2022-09-26T12:25:51.359Z,982.64
2022-09-26T12:26:51.385Z,982.66
2022-09-26T12:27:51.339Z,982.62
2022-09-26T12:28:51.328Z,982.62
2022-09-26T12:29:51.317Z,982.59
2022-09-26T12:30:51.335Z,982.66